Brevik Bridge — VRHY7 — position and weather

sailwx.info

Track history (hours):
 
Tides and Currents Weather Stations Pressure Air Temp Water Temp Dewpoint Dewpoint Depression Visibility Wind Speed Wind Dir Waves Ship Positions

Brevik Bridge

Last reported at 2015-Jan-30 14:14 UTC. Time now 2015-Feb-01 13:18 UTC.
Position S 34°03' E 018°13'.

Length 268 m; draft 11.2 m.

Type: Cargo ship. MMSI: 477866200.

Date/timePositionNaut miles runAvg speedWind from/ knotsBaromVisibWave heightAir tempDewpointWater temp
2015-Jan-30 14:14S 34°03' E 018°13'1013.9
2015-Jan-30 13:33S 34°13' E 018°13'2613.0
2015-Jan-30 11:32S 34°33' E 018°34'2013.8
2015-Jan-30 10:04S 34°41' E 018°56'16913.0
2015-Jan-29 21:05S 34°45' E 022°22'50314.0
2015-Jan-28 09:09S 30°21' E 030°50'1116.3
2015-Jan-28 08:28S 30°12' E 030°57'1415.1
2015-Jan-28 07:33S 29°60' E 031°05'9 8.6
2015-Jan-28 06:32S 29°51' E 031°04'3 3.1
2015-Jan-28 05:30S 29°53' E 031°02'0 0.0
2015-Jan-28 04:24S 29°53' E 031°02'0 0.0
2015-Jan-28 03:30S 29°53' E 031°01'0 0.0
2015-Jan-28 02:18S 29°53' E 031°02'0 0.0
2015-Jan-28 01:30S 29°53' E 031°01'0 0.0
2015-Jan-28 00:30S 29°53' E 031°02'0 0.0
2015-Jan-27 23:30S 29°53' E 031°01'0 0.0
2015-Jan-27 22:30S 29°53' E 031°01'0 0.0
2015-Jan-27 21:30S 29°53' E 031°01'0 0.0
2015-Jan-27 20:30S 29°53' E 031°01'0 0.0
2015-Jan-27 19:24S 29°53' E 031°01'0 0.0
2015-Jan-27 18:30S 29°53' E 031°01'0 0.0
2015-Jan-27 17:30S 29°53' E 031°01'0 0.0
2015-Jan-27 16:30S 29°53' E 031°01'0 0.0
2015-Jan-27 15:30S 29°53' E 031°01'0 0.0
2015-Jan-27 14:30S 29°53' E 031°01'0 0.0
2015-Jan-27 12:06S 29°53' E 031°01'0 0.0
2015-Jan-27 11:30S 29°53' E 031°01'0 0.0
2015-Jan-27 10:24S 29°53' E 031°02'0 0.0
2015-Jan-27 09:30S 29°53' E 031°01'0 0.0
2015-Jan-27 08:24S 29°53' E 031°01'0 0.0
2015-Jan-27 07:12S 29°53' E 031°01'0 0.0
2015-Jan-27 06:30S 29°53' E 031°01'0 0.0
2015-Jan-27 05:30S 29°53' E 031°01'0 0.0
2015-Jan-27 03:30S 29°53' E 031°01'0 0.0
2015-Jan-27 02:24S 29°53' E 031°01'0 0.0
2015-Jan-27 00:24S 29°53' E 031°01'0 0.0
2015-Jan-26 23:24S 29°53' E 031°01'0 0.0
2015-Jan-26 22:30S 29°53' E 031°01'0 0.0
2015-Jan-26 21:30S 29°53' E 031°02'0 0.0
2015-Jan-26 20:30S 29°53' E 031°01'0 0.0
2015-Jan-26 19:30S 29°53' E 031°01'0 0.0
2015-Jan-26 18:30S 29°53' E 031°01'0 0.0
2015-Jan-26 17:24S 29°53' E 031°02'0 0.0
2015-Jan-26 16:30S 29°53' E 031°01'0 0.0
2015-Jan-26 15:30S 29°53' E 031°02'0 0.0
2015-Jan-26 14:24S 29°53' E 031°01'0 0.0
2015-Jan-26 13:30S 29°53' E 031°01'0 0.0
2015-Jan-26 12:30S 29°53' E 031°01'0 0.0
2015-Jan-26 11:18S 29°53' E 031°01'0 0.0
2015-Jan-26 10:30S 29°53' E 031°01'0 0.0
2015-Jan-26 09:30S 29°53' E 031°02'0 0.0
2015-Jan-26 08:30S 29°53' E 031°01'0 0.0
2015-Jan-26 05:30S 29°53' E 031°02'0 0.0
2015-Jan-26 02:30S 29°53' E 031°02'0 0.0
2015-Jan-25 22:06S 29°53' E 031°01'0 0.0
2015-Jan-25 20:18S 29°53' E 031°01'0 0.0
2015-Jan-25 19:18S 29°53' E 031°02'10 2.5
2015-Jan-25 15:31S 29°46' E 031°09'0 0.0
2015-Jan-25 14:31S 29°46' E 031°09'0 0.0
2015-Jan-25 13:25S 29°46' E 031°09'0 0.0
2015-Jan-25 12:31S 29°46' E 031°09'0 0.0
2015-Jan-25 11:33S 29°46' E 031°09'7 7.0
2015-Jan-25 10:33S 29°46' E 031°17'1110.7
2015-Jan-25 09:33S 29°44' E 031°29'1111.1
2015-Jan-25 08:33S 29°42' E 031°41'1414.4
2015-Jan-25 07:34S 29°38' E 031°57'1414.0
2015-Jan-25 06:33S 29°35' E 032°13'  
Track history (hours):
 
Tides and Currents Weather Stations Pressure Air Temp Water Temp Dewpoint Dewpoint Depression Visibility Wind Speed Wind Dir Waves Ship Positions

Brevik Bridge

Last reported at 2015-Jan-30 14:14 UTC. Time now 2015-Feb-01 13:18 UTC.
Position S 34°03' E 018°13'.

Length 268 m; draft 11.2 m.

Type: Cargo ship. MMSI: 477866200.

Date/timePositionNaut miles runAvg speedWind from/ knotsBaromVisibWave heightAir tempDewpointWater temp
2015-Jan-30 14:14S 34°03' E 018°13'1013.9
2015-Jan-30 13:33S 34°13' E 018°13'2613.0
2015-Jan-30 11:32S 34°33' E 018°34'2013.8
2015-Jan-30 10:04S 34°41' E 018°56'16913.0
2015-Jan-29 21:05S 34°45' E 022°22'50314.0
2015-Jan-28 09:09S 30°21' E 030°50'1116.3
2015-Jan-28 08:28S 30°12' E 030°57'1415.1
2015-Jan-28 07:33S 29°60' E 031°05'9 8.6
2015-Jan-28 06:32S 29°51' E 031°04'3 3.1
2015-Jan-28 05:30S 29°53' E 031°02'0 0.0
2015-Jan-28 04:24S 29°53' E 031°02'0 0.0
2015-Jan-28 03:30S 29°53' E 031°01'0 0.0
2015-Jan-28 02:18S 29°53' E 031°02'0 0.0
2015-Jan-28 01:30S 29°53' E 031°01'0 0.0
2015-Jan-28 00:30S 29°53' E 031°02'0 0.0
2015-Jan-27 23:30S 29°53' E 031°01'0 0.0
2015-Jan-27 22:30S 29°53' E 031°01'0 0.0
2015-Jan-27 21:30S 29°53' E 031°01'0 0.0
2015-Jan-27 20:30S 29°53' E 031°01'0 0.0
2015-Jan-27 19:24S 29°53' E 031°01'0 0.0
2015-Jan-27 18:30S 29°53' E 031°01'0 0.0
2015-Jan-27 17:30S 29°53' E 031°01'0 0.0
2015-Jan-27 16:30S 29°53' E 031°01'0 0.0
2015-Jan-27 15:30S 29°53' E 031°01'0 0.0
2015-Jan-27 14:30S 29°53' E 031°01'0 0.0
2015-Jan-27 12:06S 29°53' E 031°01'0 0.0
2015-Jan-27 11:30S 29°53' E 031°01'0 0.0
2015-Jan-27 10:24S 29°53' E 031°02'0 0.0
2015-Jan-27 09:30S 29°53' E 031°01'0 0.0
2015-Jan-27 08:24S 29°53' E 031°01'0 0.0
2015-Jan-27 07:12S 29°53' E 031°01'0 0.0
2015-Jan-27 06:30S 29°53' E 031°01'0 0.0
2015-Jan-27 05:30S 29°53' E 031°01'0 0.0
2015-Jan-27 03:30S 29°53' E 031°01'0 0.0
2015-Jan-27 02:24S 29°53' E 031°01'0 0.0
2015-Jan-27 00:24S 29°53' E 031°01'0 0.0
2015-Jan-26 23:24S 29°53' E 031°01'0 0.0
2015-Jan-26 22:30S 29°53' E 031°01'0 0.0
2015-Jan-26 21:30S 29°53' E 031°02'0 0.0
2015-Jan-26 20:30S 29°53' E 031°01'0 0.0
2015-Jan-26 19:30S 29°53' E 031°01'0 0.0
2015-Jan-26 18:30S 29°53' E 031°01'0 0.0
2015-Jan-26 17:24S 29°53' E 031°02'0 0.0
2015-Jan-26 16:30S 29°53' E 031°01'0 0.0
2015-Jan-26 15:30S 29°53' E 031°02'0 0.0
2015-Jan-26 14:24S 29°53' E 031°01'0 0.0
2015-Jan-26 13:30S 29°53' E 031°01'0 0.0
2015-Jan-26 12:30S 29°53' E 031°01'0 0.0
2015-Jan-26 11:18S 29°53' E 031°01'0 0.0
2015-Jan-26 10:30S 29°53' E 031°01'0 0.0
2015-Jan-26 09:30S 29°53' E 031°02'0 0.0
2015-Jan-26 08:30S 29°53' E 031°01'0 0.0
2015-Jan-26 05:30S 29°53' E 031°02'0 0.0
2015-Jan-26 02:30S 29°53' E 031°02'0 0.0
2015-Jan-25 22:06S 29°53' E 031°01'0 0.0
2015-Jan-25 20:18S 29°53' E 031°01'0 0.0
2015-Jan-25 19:18S 29°53' E 031°02'10 2.5
2015-Jan-25 15:31S 29°46' E 031°09'0 0.0
2015-Jan-25 14:31S 29°46' E 031°09'0 0.0
2015-Jan-25 13:25S 29°46' E 031°09'0 0.0
2015-Jan-25 12:31S 29°46' E 031°09'0 0.0
2015-Jan-25 11:33S 29°46' E 031°09'7 7.0
2015-Jan-25 10:33S 29°46' E 031°17'1110.7
2015-Jan-25 09:33S 29°44' E 031°29'1111.1
2015-Jan-25 08:33S 29°42' E 031°41'1414.4
2015-Jan-25 07:34S 29°38' E 031°57'1414.0
2015-Jan-25 06:33S 29°35' E 032°13'  

Dump ship's entire track history